sensor_id;sensor_type;location;lat;lon;timestamp;P1;durP1;ratioP1;P2;durP2;ratioP2
28070;SDS011;15383;48.408;9.968;2022-12-20T00:01:51;103.85;;;37.55;;
28070;SDS011;15383;48.408;9.968;2022-12-20T00:04:17;94.38;;;35.03;;
28070;SDS011;15383;48.408;9.968;2022-12-20T00:06:42;92.15;;;35.53;;
28070;SDS011;15383;48.408;9.968;2022-12-20T00:09:08;85.13;;;36.40;;
28070;SDS011;15383;48.408;9.968;2022-12-20T00:11:37;87.28;;;34.80;;
28070;SDS011;15383;48.408;9.968;2022-12-20T00:14:04;83.13;;;33.95;;
28070;SDS011;15383;48.408;9.968;2022-12-20T00:16:29;83.65;;;33.35;;
28070;SDS011;15383;48.408;9.968;2022-12-20T00:18:56;90.65;;;33.00;;
28070;SDS011;15383;48.408;9.968;2022-12-20T00:21:23;82.43;;;31.95;;
28070;SDS011;15383;48.408;9.968;2022-12-20T00:23:50;90.80;;;33.90;;
28070;SDS011;15383;48.408;9.968;2022-12-20T00:26:17;78.95;;;31.88;;
28070;SDS011;15383;48.408;9.968;2022-12-20T00:28:45;79.13;;;32.50;;
28070;SDS011;15383;48.408;9.968;2022-12-20T00:31:12;81.72;;;32.15;;
28070;SDS011;15383;48.408;9.968;2022-12-20T00:33:39;85.22;;;31.75;;
28070;SDS011;15383;48.408;9.968;2022-12-20T00:36:05;70.32;;;32.22;;
28070;SDS011;15383;48.408;9.968;2022-12-20T00:38:32;79.95;;;32.53;;
28070;SDS011;15383;48.408;9.968;2022-12-20T00:41:18;84.13;;;33.25;;
28070;SDS011;15383;48.408;9.968;2022-12-20T00:43:46;83.60;;;31.80;;
28070;SDS011;15383;48.408;9.968;2022-12-20T00:46:12;90.70;;;33.03;;
28070;SDS011;15383;48.408;9.968;2022-12-20T00:48:39;78.95;;;30.90;;
28070;SDS011;15383;48.408;9.968;2022-12-20T00:51:06;69.93;;;29.67;;
28070;SDS011;15383;48.408;9.968;2022-12-20T00:53:33;80.55;;;30.70;;
28070;SDS011;15383;48.408;9.968;2022-12-20T00:56:00;67.70;;;29.33;;
28070;SDS011;15383;48.408;9.968;2022-12-20T00:58:26;75.63;;;29.95;;
28070;SDS011;15383;48.408;9.968;2022-12-20T01:00:52;68.60;;;29.50;;
28070;SDS011;15383;48.408;9.968;2022-12-20T01:03:18;83.00;;;29.92;;
28070;SDS011;15383;48.408;9.968;2022-12-20T01:05:54;68.85;;;29.63;;
28070;SDS011;15383;48.408;9.968;2022-12-20T01:11:00;77.82;;;27.85;;
28070;SDS011;15383;48.408;9.968;2022-12-20T01:13:28;69.80;;;27.13;;
28070;SDS011;15383;48.408;9.968;2022-12-20T01:15:55;85.80;;;28.23;;
28070;SDS011;15383;48.408;9.968;2022-12-20T01:18:21;79.60;;;30.55;;
28070;SDS011;15383;48.408;9.968;2022-12-20T01:20:47;71.13;;;26.83;;
28070;SDS011;15383;48.408;9.968;2022-12-20T01:23:12;77.38;;;28.65;;
28070;SDS011;15383;48.408;9.968;2022-12-20T01:25:38;72.95;;;28.40;;
28070;SDS011;15383;48.408;9.968;2022-12-20T01:28:03;74.28;;;27.77;;
28070;SDS011;15383;48.408;9.968;2022-12-20T01:30:29;65.53;;;25.10;;
28070;SDS011;15383;48.408;9.968;2022-12-20T01:32:54;66.25;;;28.65;;
28070;SDS011;15383;48.408;9.968;2022-12-20T01:35:20;70.13;;;26.83;;
28070;SDS011;15383;48.408;9.968;2022-12-20T01:37:45;68.45;;;27.30;;
28070;SDS011;15383;48.408;9.968;2022-12-20T01:40:11;74.68;;;28.48;;
28070;SDS011;15383;48.408;9.968;2022-12-20T01:42:37;62.08;;;25.25;;
28070;SDS011;15383;48.408;9.968;2022-12-20T01:45:02;60.00;;;25.52;;
28070;SDS011;15383;48.408;9.968;2022-12-20T01:47:37;70.07;;;25.83;;
28070;SDS011;15383;48.408;9.968;2022-12-20T01:50:05;74.95;;;26.48;;
28070;SDS011;15383;48.408;9.968;2022-12-20T01:52:34;66.18;;;27.42;;
28070;SDS011;15383;48.408;9.968;2022-12-20T01:55:23;61.90;;;25.88;;
28070;SDS011;15383;48.408;9.968;2022-12-20T01:57:53;65.38;;;25.45;;
28070;SDS011;15383;48.408;9.968;2022-12-20T02:00:25;61.97;;;24.08;;
28070;SDS011;15383;48.408;9.968;2022-12-20T02:02:51;63.35;;;25.13;;
28070;SDS011;15383;48.408;9.968;2022-12-20T02:05:19;64.95;;;24.63;;
28070;SDS011;15383;48.408;9.968;2022-12-20T02:07:47;61.03;;;23.10;;
28070;SDS011;15383;48.408;9.968;2022-12-20T02:10:15;56.13;;;23.90;;
28070;SDS011;15383;48.408;9.968;2022-12-20T02:12:46;60.08;;;25.00;;
28070;SDS011;15383;48.408;9.968;2022-12-20T02:20:56;54.67;;;23.10;;
28070;SDS011;15383;48.408;9.968;2022-12-20T02:31:38;56.75;;;23.80;;
28070;SDS011;15383;48.408;9.968;2022-12-20T02:34:07;52.47;;;22.50;;
28070;SDS011;15383;48.408;9.968;2022-12-20T02:36:35;56.58;;;23.15;;
28070;SDS011;15383;48.408;9.968;2022-12-20T02:39:00;56.45;;;22.98;;
28070;SDS011;15383;48.408;9.968;2022-12-20T02:41:29;47.85;;;21.85;;
28070;SDS011;15383;48.408;9.968;2022-12-20T02:44:02;53.33;;;20.90;;
28070;SDS011;15383;48.408;9.968;2022-12-20T02:46:58;56.45;;;20.83;;
28070;SDS011;15383;48.408;9.968;2022-12-20T02:49:26;58.72;;;22.05;;
28070;SDS011;15383;48.408;9.968;2022-12-20T02:51:55;48.58;;;20.05;;
28070;SDS011;15383;48.408;9.968;2022-12-20T02:54:22;59.80;;;20.80;;
28070;SDS011;15383;48.408;9.968;2022-12-20T02:57:36;43.05;;;19.70;;
28070;SDS011;15383;48.408;9.968;2022-12-20T02:59:41;44.90;;;18.75;;
28070;SDS011;15383;48.408;9.968;2022-12-20T03:02:13;54.17;;;19.85;;
28070;SDS011;15383;48.408;9.968;2022-12-20T03:04:39;52.15;;;19.77;;
28070;SDS011;15383;48.408;9.968;2022-12-20T03:07:10;49.42;;;18.92;;
28070;SDS011;15383;48.408;9.968;2022-12-20T03:09:38;44.20;;;18.50;;
28070;SDS011;15383;48.408;9.968;2022-12-20T03:12:06;55.05;;;21.25;;
28070;SDS011;15383;48.408;9.968;2022-12-20T03:14:32;39.45;;;17.48;;
28070;SDS011;15383;48.408;9.968;2022-12-20T03:16:58;42.83;;;18.95;;
28070;SDS011;15383;48.408;9.968;2022-12-20T03:19:24;42.38;;;17.77;;
28070;SDS011;15383;48.408;9.968;2022-12-20T03:21:50;46.53;;;18.10;;
28070;SDS011;15383;48.408;9.968;2022-12-20T03:24:16;46.55;;;18.13;;
28070;SDS011;15383;48.408;9.968;2022-12-20T03:26:42;42.60;;;18.05;;
28070;SDS011;15383;48.408;9.968;2022-12-20T03:29:07;40.97;;;17.55;;
28070;SDS011;15383;48.408;9.968;2022-12-20T03:31:33;41.92;;;17.17;;
28070;SDS011;15383;48.408;9.968;2022-12-20T03:33:59;43.65;;;17.00;;
28070;SDS011;15383;48.408;9.968;2022-12-20T03:36:24;39.45;;;16.95;;
28070;SDS011;15383;48.408;9.968;2022-12-20T03:38:50;39.88;;;18.45;;
28070;SDS011;15383;48.408;9.968;2022-12-20T03:41:17;44.67;;;18.08;;
28070;SDS011;15383;48.408;9.968;2022-12-20T03:43:45;40.88;;;16.75;;
28070;SDS011;15383;48.408;9.968;2022-12-20T03:46:10;39.42;;;16.33;;
28070;SDS011;15383;48.408;9.968;2022-12-20T03:48:36;49.45;;;17.50;;
28070;SDS011;15383;48.408;9.968;2022-12-20T03:51:02;44.55;;;16.75;;
28070;SDS011;15383;48.408;9.968;2022-12-20T03:53:28;40.22;;;17.08;;
28070;SDS011;15383;48.408;9.968;2022-12-20T03:55:53;37.75;;;15.35;;
28070;SDS011;15383;48.408;9.968;2022-12-20T03:58:19;38.15;;;15.57;;
28070;SDS011;15383;48.408;9.968;2022-12-20T04:00:44;44.22;;;16.50;;
28070;SDS011;15383;48.408;9.968;2022-12-20T04:03:10;43.08;;;17.30;;
28070;SDS011;15383;48.408;9.968;2022-12-20T04:05:35;40.58;;;16.33;;
28070;SDS011;15383;48.408;9.968;2022-12-20T04:08:01;37.80;;;15.32;;
28070;SDS011;15383;48.408;9.968;2022-12-20T04:10:27;34.50;;;15.15;;
28070;SDS011;15383;48.408;9.968;2022-12-20T04:12:52;33.50;;;14.63;;
28070;SDS011;15383;48.408;9.968;2022-12-20T04:15:18;35.10;;;14.85;;
28070;SDS011;15383;48.408;9.968;2022-12-20T04:17:43;34.60;;;14.60;;
28070;SDS011;15383;48.408;9.968;2022-12-20T04:20:12;33.70;;;15.65;;
28070;SDS011;15383;48.408;9.968;2022-12-20T04:22:48;33.85;;;14.80;;
28070;SDS011;15383;48.408;9.968;2022-12-20T04:25:16;41.72;;;15.45;;
28070;SDS011;15383;48.408;9.968;2022-12-20T04:27:43;32.00;;;14.05;;
28070;SDS011;15383;48.408;9.968;2022-12-20T04:30:09;31.85;;;14.18;;
28070;SDS011;15383;48.408;9.968;2022-12-20T04:32:35;34.50;;;13.93;;
28070;SDS011;15383;48.408;9.968;2022-12-20T04:35:01;31.65;;;13.45;;
28070;SDS011;15383;48.408;9.968;2022-12-20T04:37:28;40.13;;;15.80;;
28070;SDS011;15383;48.408;9.968;2022-12-20T04:39:54;31.42;;;13.90;;
28070;SDS011;15383;48.408;9.968;2022-12-20T04:42:20;40.80;;;14.57;;
28070;SDS011;15383;48.408;9.968;2022-12-20T04:44:46;36.25;;;14.00;;
28070;SDS011;15383;48.408;9.968;2022-12-20T04:47:12;28.23;;;12.18;;
28070;SDS011;15383;48.408;9.968;2022-12-20T04:49:37;31.67;;;13.93;;
28070;SDS011;15383;48.408;9.968;2022-12-20T04:52:03;35.70;;;13.88;;
28070;SDS011;15383;48.408;9.968;2022-12-20T04:54:47;33.65;;;13.52;;
28070;SDS011;15383;48.408;9.968;2022-12-20T04:57:12;32.33;;;13.23;;
28070;SDS011;15383;48.408;9.968;2022-12-20T04:59:38;31.35;;;12.45;;
28070;SDS011;15383;48.408;9.968;2022-12-20T05:02:04;29.13;;;13.30;;
28070;SDS011;15383;48.408;9.968;2022-12-20T05:04:29;31.08;;;13.90;;
28070;SDS011;15383;48.408;9.968;2022-12-20T05:06:55;33.78;;;13.43;;
28070;SDS011;15383;48.408;9.968;2022-12-20T05:09:21;27.50;;;12.35;;
28070;SDS011;15383;48.408;9.968;2022-12-20T05:11:46;31.83;;;12.43;;
28070;SDS011;15383;48.408;9.968;2022-12-20T05:14:13;27.70;;;11.90;;
28070;SDS011;15383;48.408;9.968;2022-12-20T05:16:39;38.28;;;13.80;;
28070;SDS011;15383;48.408;9.968;2022-12-20T05:19:04;24.73;;;10.93;;
28070;SDS011;15383;48.408;9.968;2022-12-20T05:21:30;27.25;;;11.85;;
28070;SDS011;15383;48.408;9.968;2022-12-20T05:24:14;29.10;;;11.57;;
28070;SDS011;15383;48.408;9.968;2022-12-20T05:26:58;31.90;;;12.73;;
28070;SDS011;15383;48.408;9.968;2022-12-20T05:29:23;28.42;;;11.63;;
28070;SDS011;15383;48.408;9.968;2022-12-20T05:31:49;28.05;;;11.70;;
28070;SDS011;15383;48.408;9.968;2022-12-20T05:34:15;35.08;;;12.52;;
28070;SDS011;15383;48.408;9.968;2022-12-20T05:36:40;26.10;;;11.70;;
28070;SDS011;15383;48.408;9.968;2022-12-20T05:39:06;28.45;;;11.70;;
28070;SDS011;15383;48.408;9.968;2022-12-20T05:41:31;24.92;;;12.77;;
28070;SDS011;15383;48.408;9.968;2022-12-20T05:43:57;28.17;;;11.02;;
28070;SDS011;15383;48.408;9.968;2022-12-20T05:46:23;26.60;;;11.82;;
28070;SDS011;15383;48.408;9.968;2022-12-20T05:48:48;26.60;;;11.98;;
28070;SDS011;15383;48.408;9.968;2022-12-20T05:51:14;22.50;;;11.05;;
28070;SDS011;15383;48.408;9.968;2022-12-20T05:53:39;24.58;;;11.80;;
28070;SDS011;15383;48.408;9.968;2022-12-20T05:56:05;30.35;;;10.88;;
28070;SDS011;15383;48.408;9.968;2022-12-20T05:58:31;21.60;;;10.63;;
28070;SDS011;15383;48.408;9.968;2022-12-20T06:00:59;23.70;;;11.68;;
28070;SDS011;15383;48.408;9.968;2022-12-20T06:03:25;30.08;;;11.13;;
28070;SDS011;15383;48.408;9.968;2022-12-20T06:05:51;30.33;;;11.80;;
28070;SDS011;15383;48.408;9.968;2022-12-20T06:08:17;22.15;;;10.35;;
28070;SDS011;15383;48.408;9.968;2022-12-20T06:10:42;29.42;;;11.02;;
28070;SDS011;15383;48.408;9.968;2022-12-20T06:13:08;22.63;;;10.90;;
28070;SDS011;15383;48.408;9.968;2022-12-20T06:15:34;20.10;;;9.65;;
28070;SDS011;15383;48.408;9.968;2022-12-20T06:18:00;24.15;;;9.70;;
28070;SDS011;15383;48.408;9.968;2022-12-20T06:20:25;20.08;;;8.98;;
28070;SDS011;15383;48.408;9.968;2022-12-20T06:22:51;25.73;;;10.93;;
28070;SDS011;15383;48.408;9.968;2022-12-20T06:25:16;24.60;;;11.35;;
28070;SDS011;15383;48.408;9.968;2022-12-20T06:27:42;25.55;;;11.35;;
28070;SDS011;15383;48.408;9.968;2022-12-20T06:30:08;21.58;;;9.55;;
28070;SDS011;15383;48.408;9.968;2022-12-20T06:32:34;28.30;;;9.90;;
28070;SDS011;15383;48.408;9.968;2022-12-20T06:35:00;20.13;;;9.50;;
28070;SDS011;15383;48.408;9.968;2022-12-20T06:37:26;21.90;;;10.35;;
28070;SDS011;15383;48.408;9.968;2022-12-20T06:39:52;19.73;;;8.73;;
28070;SDS011;15383;48.408;9.968;2022-12-20T06:42:17;22.10;;;9.40;;
28070;SDS011;15383;48.408;9.968;2022-12-20T06:44:43;25.10;;;8.82;;
28070;SDS011;15383;48.408;9.968;2022-12-20T06:47:08;28.05;;;10.75;;
28070;SDS011;15383;48.408;9.968;2022-12-20T06:49:34;19.05;;;9.43;;
28070;SDS011;15383;48.408;9.968;2022-12-20T06:51:59;23.90;;;9.90;;
28070;SDS011;15383;48.408;9.968;2022-12-20T06:54:25;23.20;;;9.73;;
28070;SDS011;15383;48.408;9.968;2022-12-20T06:56:51;23.40;;;10.15;;
28070;SDS011;15383;48.408;9.968;2022-12-20T06:59:16;24.40;;;10.50;;
28070;SDS011;15383;48.408;9.968;2022-12-20T07:01:42;20.40;;;8.95;;
28070;SDS011;15383;48.408;9.968;2022-12-20T07:04:08;25.63;;;10.93;;
28070;SDS011;15383;48.408;9.968;2022-12-20T07:06:34;26.27;;;10.48;;
28070;SDS011;15383;48.408;9.968;2022-12-20T07:09:00;21.33;;;8.52;;
28070;SDS011;15383;48.408;9.968;2022-12-20T07:11:26;23.67;;;8.90;;
28070;SDS011;15383;48.408;9.968;2022-12-20T07:13:55;21.70;;;8.93;;
28070;SDS011;15383;48.408;9.968;2022-12-20T07:16:21;20.35;;;8.68;;
28070;SDS011;15383;48.408;9.968;2022-12-20T07:18:53;23.35;;;9.80;;
28070;SDS011;15383;48.408;9.968;2022-12-20T07:21:20;22.08;;;9.88;;
28070;SDS011;15383;48.408;9.968;2022-12-20T07:23:46;29.13;;;9.90;;
28070;SDS011;15383;48.408;9.968;2022-12-20T07:26:12;26.88;;;9.35;;
28070;SDS011;15383;48.408;9.968;2022-12-20T07:28:38;27.23;;;9.82;;
28070;SDS011;15383;48.408;9.968;2022-12-20T07:31:04;18.30;;;8.85;;
28070;SDS011;15383;48.408;9.968;2022-12-20T07:33:31;18.40;;;8.68;;
28070;SDS011;15383;48.408;9.968;2022-12-20T07:36:15;20.08;;;9.38;;
28070;SDS011;15383;48.408;9.968;2022-12-20T07:38:41;16.45;;;8.27;;
28070;SDS011;15383;48.408;9.968;2022-12-20T07:41:07;32.63;;;9.25;;
28070;SDS011;15383;48.408;9.968;2022-12-20T07:43:38;24.48;;;9.98;;
28070;SDS011;15383;48.408;9.968;2022-12-20T07:46:04;18.95;;;9.38;;
28070;SDS011;15383;48.408;9.968;2022-12-20T07:48:31;18.13;;;8.25;;
28070;SDS011;15383;48.408;9.968;2022-12-20T07:51:02;22.20;;;9.73;;
28070;SDS011;15383;48.408;9.968;2022-12-20T07:53:30;21.88;;;9.38;;
28070;SDS011;15383;48.408;9.968;2022-12-20T07:55:58;19.05;;;7.82;;
28070;SDS011;15383;48.408;9.968;2022-12-20T07:58:25;16.15;;;8.27;;
28070;SDS011;15383;48.408;9.968;2022-12-20T08:00:52;21.83;;;8.57;;
28070;SDS011;15383;48.408;9.968;2022-12-20T08:03:19;23.45;;;7.88;;
28070;SDS011;15383;48.408;9.968;2022-12-20T08:05:50;17.95;;;7.72;;
28070;SDS011;15383;48.408;9.968;2022-12-20T08:08:20;14.88;;;7.38;;
28070;SDS011;15383;48.408;9.968;2022-12-20T08:10:46;13.90;;;7.03;;
28070;SDS011;15383;48.408;9.968;2022-12-20T08:13:13;20.60;;;8.18;;
28070;SDS011;15383;48.408;9.968;2022-12-20T08:15:39;19.45;;;7.72;;
28070;SDS011;15383;48.408;9.968;2022-12-20T08:18:05;19.30;;;7.82;;
28070;SDS011;15383;48.408;9.968;2022-12-20T08:20:31;14.98;;;7.25;;
28070;SDS011;15383;48.408;9.968;2022-12-20T08:22:56;13.68;;;7.15;;
28070;SDS011;15383;48.408;9.968;2022-12-20T08:25:22;17.73;;;6.60;;
28070;SDS011;15383;48.408;9.968;2022-12-20T08:27:48;13.18;;;6.47;;
28070;SDS011;15383;48.408;9.968;2022-12-20T08:30:14;15.00;;;7.05;;
28070;SDS011;15383;48.408;9.968;2022-12-20T08:32:39;17.27;;;7.30;;
28070;SDS011;15383;48.408;9.968;2022-12-20T08:35:06;23.23;;;6.80;;
28070;SDS011;15383;48.408;9.968;2022-12-20T08:37:32;15.40;;;7.40;;
28070;SDS011;15383;48.408;9.968;2022-12-20T08:39:58;18.02;;;6.82;;
28070;SDS011;15383;48.408;9.968;2022-12-20T08:42:25;13.00;;;6.85;;
28070;SDS011;15383;48.408;9.968;2022-12-20T08:44:51;13.60;;;6.22;;
28070;SDS011;15383;48.408;9.968;2022-12-20T08:47:16;16.55;;;7.93;;
28070;SDS011;15383;48.408;9.968;2022-12-20T08:49:42;13.50;;;6.53;;
28070;SDS011;15383;48.408;9.968;2022-12-20T08:52:07;14.15;;;6.57;;
28070;SDS011;15383;48.408;9.968;2022-12-20T08:54:33;13.40;;;6.75;;
28070;SDS011;15383;48.408;9.968;2022-12-20T08:56:58;17.17;;;6.95;;
28070;SDS011;15383;48.408;9.968;2022-12-20T08:59:24;16.73;;;8.15;;
28070;SDS011;15383;48.408;9.968;2022-12-20T09:01:50;16.10;;;6.68;;
28070;SDS011;15383;48.408;9.968;2022-12-20T09:04:18;15.88;;;7.20;;
28070;SDS011;15383;48.408;9.968;2022-12-20T09:06:44;20.20;;;7.13;;
28070;SDS011;15383;48.408;9.968;2022-12-20T09:09:09;19.42;;;7.25;;
28070;SDS011;15383;48.408;9.968;2022-12-20T09:11:35;18.38;;;6.60;;
28070;SDS011;15383;48.408;9.968;2022-12-20T09:14:00;14.75;;;6.40;;
28070;SDS011;15383;48.408;9.968;2022-12-20T09:16:28;10.32;;;5.65;;
28070;SDS011;15383;48.408;9.968;2022-12-20T09:18:55;19.42;;;7.38;;
28070;SDS011;15383;48.408;9.968;2022-12-20T09:21:22;12.75;;;6.57;;
28070;SDS011;15383;48.408;9.968;2022-12-20T09:23:54;15.48;;;7.05;;
28070;SDS011;15383;48.408;9.968;2022-12-20T09:26:21;19.25;;;6.25;;
28070;SDS011;15383;48.408;9.968;2022-12-20T09:28:47;15.18;;;5.93;;
28070;SDS011;15383;48.408;9.968;2022-12-20T09:31:14;13.63;;;6.38;;
28070;SDS011;15383;48.408;9.968;2022-12-20T09:33:41;15.18;;;6.57;;
28070;SDS011;15383;48.408;9.968;2022-12-20T09:36:14;14.05;;;6.40;;
28070;SDS011;15383;48.408;9.968;2022-12-20T09:38:42;15.02;;;6.47;;
28070;SDS011;15383;48.408;9.968;2022-12-20T09:41:15;14.45;;;6.40;;
28070;SDS011;15383;48.408;9.968;2022-12-20T09:44:03;16.63;;;6.32;;
28070;SDS011;15383;48.408;9.968;2022-12-20T09:46:38;13.68;;;6.50;;
28070;SDS011;15383;48.408;9.968;2022-12-20T09:49:04;15.38;;;5.30;;
28070;SDS011;15383;48.408;9.968;2022-12-20T09:54:34;15.38;;;6.32;;
28070;SDS011;15383;48.408;9.968;2022-12-20T09:59:54;12.40;;;6.28;;
28070;SDS011;15383;48.408;9.968;2022-12-20T10:02:22;16.27;;;6.53;;
28070;SDS011;15383;48.408;9.968;2022-12-20T10:04:49;13.45;;;5.95;;
28070;SDS011;15383;48.408;9.968;2022-12-20T10:07:32;13.70;;;6.25;;
28070;SDS011;15383;48.408;9.968;2022-12-20T10:20:57;13.40;;;6.28;;
28070;SDS011;15383;48.408;9.968;2022-12-20T10:23:37;14.75;;;6.55;;
28070;SDS011;15383;48.408;9.968;2022-12-20T10:26:09;12.45;;;5.93;;
28070;SDS011;15383;48.408;9.968;2022-12-20T10:28:37;15.68;;;5.90;;
28070;SDS011;15383;48.408;9.968;2022-12-20T10:31:10;13.82;;;6.57;;
28070;SDS011;15383;48.408;9.968;2022-12-20T10:33:37;12.45;;;5.72;;
28070;SDS011;15383;48.408;9.968;2022-12-20T10:36:16;14.25;;;6.53;;
28070;SDS011;15383;48.408;9.968;2022-12-20T10:38:57;14.45;;;6.65;;
28070;SDS011;15383;48.408;9.968;2022-12-20T10:41:31;13.65;;;6.35;;
28070;SDS011;15383;48.408;9.968;2022-12-20T10:46:55;19.83;;;6.07;;
28070;SDS011;15383;48.408;9.968;2022-12-20T10:52:02;44.35;;;12.23;;
28070;SDS011;15383;48.408;9.968;2022-12-20T10:59:50;29.67;;;12.93;;
28070;SDS011;15383;48.408;9.968;2022-12-20T11:02:31;21.73;;;10.00;;
28070;SDS011;15383;48.408;9.968;2022-12-20T11:05:00;19.15;;;9.40;;
28070;SDS011;15383;48.408;9.968;2022-12-20T11:07:27;21.08;;;9.77;;
28070;SDS011;15383;48.408;9.968;2022-12-20T11:09:56;20.63;;;9.45;;
28070;SDS011;15383;48.408;9.968;2022-12-20T11:12:24;20.67;;;8.93;;
28070;SDS011;15383;48.408;9.968;2022-12-20T11:14:50;18.33;;;8.13;;
28070;SDS011;15383;48.408;9.968;2022-12-20T11:20:00;16.50;;;7.57;;
28070;SDS011;15383;48.408;9.968;2022-12-20T11:22:59;14.70;;;7.90;;
28070;SDS011;15383;48.408;9.968;2022-12-20T11:37:17;15.45;;;5.63;;
28070;SDS011;15383;48.408;9.968;2022-12-20T11:42:50;11.43;;;5.68;;
28070;SDS011;15383;48.408;9.968;2022-12-20T11:48:24;16.42;;;6.28;;
28070;SDS011;15383;48.408;9.968;2022-12-20T11:53:25;13.43;;;6.30;;
28070;SDS011;15383;48.408;9.968;2022-12-20T11:55:53;14.18;;;4.90;;
28070;SDS011;15383;48.408;9.968;2022-12-20T11:58:28;9.30;;;4.60;;
28070;SDS011;15383;48.408;9.968;2022-12-20T12:01:13;12.35;;;5.50;;
28070;SDS011;15383;48.408;9.968;2022-12-20T12:04:04;12.57;;;5.13;;
28070;SDS011;15383;48.408;9.968;2022-12-20T12:06:57;8.70;;;5.40;;
28070;SDS011;15383;48.408;9.968;2022-12-20T12:09:35;10.38;;;5.60;;
28070;SDS011;15383;48.408;9.968;2022-12-20T12:12:30;10.55;;;5.20;;
28070;SDS011;15383;48.408;9.968;2022-12-20T12:17:58;11.90;;;5.95;;
28070;SDS011;15383;48.408;9.968;2022-12-20T12:26:26;9.45;;;4.68;;
28070;SDS011;15383;48.408;9.968;2022-12-20T12:29:00;12.82;;;4.88;;
28070;SDS011;15383;48.408;9.968;2022-12-20T12:31:37;10.65;;;4.93;;
28070;SDS011;15383;48.408;9.968;2022-12-20T12:36:54;10.00;;;5.15;;
28070;SDS011;15383;48.408;9.968;2022-12-20T12:42:22;17.05;;;5.13;;
28070;SDS011;15383;48.408;9.968;2022-12-20T12:50:25;10.43;;;4.68;;
28070;SDS011;15383;48.408;9.968;2022-12-20T12:52:55;11.52;;;5.22;;
28070;SDS011;15383;48.408;9.968;2022-12-20T12:55:44;9.32;;;5.00;;
28070;SDS011;15383;48.408;9.968;2022-12-20T13:00:57;8.95;;;5.03;;
28070;SDS011;15383;48.408;9.968;2022-12-20T13:03:39;10.25;;;4.53;;
28070;SDS011;15383;48.408;9.968;2022-12-20T13:11:54;9.63;;;4.82;;
28070;SDS011;15383;48.408;9.968;2022-12-20T13:16:45;8.43;;;4.68;;
28070;SDS011;15383;48.408;9.968;2022-12-20T13:21:55;11.82;;;4.95;;
28070;SDS011;15383;48.408;9.968;2022-12-20T13:36:28;12.88;;;4.95;;
28070;SDS011;15383;48.408;9.968;2022-12-20T13:43:55;8.77;;;4.28;;
28070;SDS011;15383;48.408;9.968;2022-12-20T13:46:41;7.28;;;4.75;;
28070;SDS011;15383;48.408;9.968;2022-12-20T13:49:11;9.23;;;4.72;;
28070;SDS011;15383;48.408;9.968;2022-12-20T13:52:05;8.10;;;4.60;;
28070;SDS011;15383;48.408;9.968;2022-12-20T13:54:31;10.18;;;4.68;;
28070;SDS011;15383;48.408;9.968;2022-12-20T13:56:57;7.30;;;4.10;;
28070;SDS011;15383;48.408;9.968;2022-12-20T13:59:24;7.88;;;4.75;;
28070;SDS011;15383;48.408;9.968;2022-12-20T14:01:52;9.55;;;5.15;;
28070;SDS011;15383;48.408;9.968;2022-12-20T14:04:22;8.00;;;4.38;;
28070;SDS011;15383;48.408;9.968;2022-12-20T14:06:57;7.85;;;5.03;;
28070;SDS011;15383;48.408;9.968;2022-12-20T14:12:02;8.90;;;5.13;;
28070;SDS011;15383;48.408;9.968;2022-12-20T14:14:36;13.27;;;4.55;;
28070;SDS011;15383;48.408;9.968;2022-12-20T14:20:05;10.15;;;4.28;;
28070;SDS011;15383;48.408;9.968;2022-12-20T14:22:52;5.90;;;3.92;;
28070;SDS011;15383;48.408;9.968;2022-12-20T14:25:45;8.55;;;4.25;;
28070;SDS011;15383;48.408;9.968;2022-12-20T14:28:28;6.53;;;4.07;;
28070;SDS011;15383;48.408;9.968;2022-12-20T14:30:59;6.10;;;3.90;;
28070;SDS011;15383;48.408;9.968;2022-12-20T14:35:54;10.45;;;4.45;;
28070;SDS011;15383;48.408;9.968;2022-12-20T14:38:21;8.88;;;4.40;;
28070;SDS011;15383;48.408;9.968;2022-12-20T14:40:52;12.35;;;4.38;;
28070;SDS011;15383;48.408;9.968;2022-12-20T14:43:23;6.90;;;4.35;;
28070;SDS011;15383;48.408;9.968;2022-12-20T14:48:44;7.88;;;3.65;;
28070;SDS011;15383;48.408;9.968;2022-12-20T14:51:10;7.30;;;3.78;;
28070;SDS011;15383;48.408;9.968;2022-12-20T14:53:37;7.05;;;4.05;;
28070;SDS011;15383;48.408;9.968;2022-12-20T14:56:04;6.00;;;4.07;;
28070;SDS011;15383;48.408;9.968;2022-12-20T14:58:35;6.63;;;3.85;;
28070;SDS011;15383;48.408;9.968;2022-12-20T15:03:55;7.25;;;3.72;;
28070;SDS011;15383;48.408;9.968;2022-12-20T15:09:09;7.22;;;3.75;;
28070;SDS011;15383;48.408;9.968;2022-12-20T15:11:36;7.60;;;3.80;;
28070;SDS011;15383;48.408;9.968;2022-12-20T15:14:04;7.90;;;4.13;;
28070;SDS011;15383;48.408;9.968;2022-12-20T15:19:18;6.43;;;3.72;;
28070;SDS011;15383;48.408;9.968;2022-12-20T15:21:43;7.63;;;4.03;;
28070;SDS011;15383;48.408;9.968;2022-12-20T15:24:17;6.18;;;3.42;;
28070;SDS011;15383;48.408;9.968;2022-12-20T15:26:46;5.80;;;3.85;;
28070;SDS011;15383;48.408;9.968;2022-12-20T15:29:20;6.28;;;3.67;;
28070;SDS011;15383;48.408;9.968;2022-12-20T15:31:47;9.98;;;3.92;;
28070;SDS011;15383;48.408;9.968;2022-12-20T15:34:21;6.95;;;4.28;;
28070;SDS011;15383;48.408;9.968;2022-12-20T15:36:54;7.90;;;3.95;;
28070;SDS011;15383;48.408;9.968;2022-12-20T15:39:24;6.97;;;3.78;;
28070;SDS011;15383;48.408;9.968;2022-12-20T15:41:50;4.55;;;3.20;;
28070;SDS011;15383;48.408;9.968;2022-12-20T15:44:18;5.28;;;3.30;;
28070;SDS011;15383;48.408;9.968;2022-12-20T15:46:48;7.03;;;3.50;;
28070;SDS011;15383;48.408;9.968;2022-12-20T15:49:15;6.85;;;3.92;;
28070;SDS011;15383;48.408;9.968;2022-12-20T15:51:43;7.55;;;3.28;;
28070;SDS011;15383;48.408;9.968;2022-12-20T15:56:57;9.15;;;3.67;;
28070;SDS011;15383;48.408;9.968;2022-12-20T15:59:26;4.93;;;3.33;;
28070;SDS011;15383;48.408;9.968;2022-12-20T16:01:52;6.70;;;3.85;;
28070;SDS011;15383;48.408;9.968;2022-12-20T16:04:20;5.72;;;4.03;;
28070;SDS011;15383;48.408;9.968;2022-12-20T16:06:46;5.75;;;3.33;;
28070;SDS011;15383;48.408;9.968;2022-12-20T16:09:14;9.10;;;3.95;;
28070;SDS011;15383;48.408;9.968;2022-12-20T16:11:40;6.93;;;3.95;;
28070;SDS011;15383;48.408;9.968;2022-12-20T16:14:14;6.43;;;3.60;;
28070;SDS011;15383;48.408;9.968;2022-12-20T16:16:41;6.47;;;3.72;;
28070;SDS011;15383;48.408;9.968;2022-12-20T16:19:08;6.65;;;3.65;;
28070;SDS011;15383;48.408;9.968;2022-12-20T16:21:41;6.13;;;3.97;;
28070;SDS011;15383;48.408;9.968;2022-12-20T16:24:11;5.50;;;3.22;;
28070;SDS011;15383;48.408;9.968;2022-12-20T16:26:38;7.78;;;3.78;;
28070;SDS011;15383;48.408;9.968;2022-12-20T16:29:03;5.93;;;3.35;;
28070;SDS011;15383;48.408;9.968;2022-12-20T16:31:33;6.25;;;3.78;;
28070;SDS011;15383;48.408;9.968;2022-12-20T16:34:01;7.07;;;4.03;;
28070;SDS011;15383;48.408;9.968;2022-12-20T16:36:29;7.25;;;3.75;;
28070;SDS011;15383;48.408;9.968;2022-12-20T16:38:54;7.50;;;3.70;;
28070;SDS011;15383;48.408;9.968;2022-12-20T16:41:21;7.32;;;4.20;;
28070;SDS011;15383;48.408;9.968;2022-12-20T16:43:49;10.43;;;3.80;;
28070;SDS011;15383;48.408;9.968;2022-12-20T16:46:19;6.85;;;3.60;;
28070;SDS011;15383;48.408;9.968;2022-12-20T16:48:45;11.98;;;4.07;;
28070;SDS011;15383;48.408;9.968;2022-12-20T16:56:27;10.02;;;4.95;;
28070;SDS011;15383;48.408;9.968;2022-12-20T16:58:54;8.10;;;3.80;;
28070;SDS011;15383;48.408;9.968;2022-12-20T17:01:22;7.82;;;4.38;;
28070;SDS011;15383;48.408;9.968;2022-12-20T17:03:51;11.32;;;3.78;;
28070;SDS011;15383;48.408;9.968;2022-12-20T17:06:17;8.77;;;4.28;;